createdAt,value
2023-03-17T00:01:44.840Z,99234.19
2023-03-17T00:04:12.551Z,99236.66
2023-03-17T00:06:40.679Z,99214.31
2023-03-17T00:09:18.396Z,99235.81
2023-03-17T00:11:46.198Z,99234.41
2023-03-17T00:14:14.190Z,99240.41
2023-03-17T00:16:43.139Z,99243.94
2023-03-17T00:19:42.371Z,99245.72
2023-03-17T00:22:17.776Z,99246.69
2023-03-17T00:24:44.705Z,99243.38
2023-03-17T00:27:13.264Z,99246.75
2023-03-17T00:29:40.534Z,99246.84
2023-03-17T00:32:17.033Z,99240.88
2023-03-17T00:34:44.771Z,99240.78
2023-03-17T00:37:12.831Z,99234.66
2023-03-17T00:39:40.041Z,99235.59
2023-03-17T00:42:07.074Z,99232.41
2023-03-17T00:44:34.579Z,99236.66
2023-03-17T00:47:01.903Z,99235.88
2023-03-17T00:49:29.052Z,99241.16
2023-03-17T00:51:55.646Z,99237.56
2023-03-17T00:54:22.401Z,99230.59
2023-03-17T00:56:52.672Z,99220.03
2023-03-17T00:59:35.370Z,99204.75
2023-03-17T01:02:02.113Z,99210.97
2023-03-17T01:04:32.195Z,99220.22
2023-03-17T01:06:59.308Z,99222.00
2023-03-17T01:09:27.619Z,99219.47
2023-03-17T01:11:55.521Z,99221.16
2023-03-17T01:14:22.556Z,99224.75
2023-03-17T01:16:49.325Z,99223.03
2023-03-17T01:19:16.736Z,99225.78
2023-03-17T01:21:43.302Z,99233.59
2023-03-17T01:24:10.734Z,99212.84
2023-03-17T01:26:38.256Z,99215.31
2023-03-17T01:29:06.279Z,99216.25
2023-03-17T01:31:32.935Z,99221.63
2023-03-17T01:33:59.960Z,99217.28
2023-03-17T01:36:26.508Z,99213.88
2023-03-17T01:38:53.805Z,99218.31
2023-03-17T01:41:20.737Z,99220.97
2023-03-17T01:43:47.633Z,99211.31
2023-03-17T01:46:28.092Z,99205.22
2023-03-17T01:49:16.026Z,99210.50
2023-03-17T01:52:15.776Z,99203.50
2023-03-17T01:54:50.320Z,99203.69
2023-03-17T01:57:16.872Z,99191.41
2023-03-17T01:59:51.353Z,99187.38
2023-03-17T02:02:23.451Z,99193.22
2023-03-17T02:04:52.986Z,99186.75
2023-03-17T02:07:22.192Z,99186.16
2023-03-17T02:09:49.586Z,99195.19
2023-03-17T02:12:22.244Z,99192.66
2023-03-17T02:14:50.026Z,99192.66
2023-03-17T02:17:16.574Z,99189.41
2023-03-17T02:19:43.678Z,99190.09
2023-03-17T02:22:11.472Z,99178.16
2023-03-17T02:24:45.927Z,99189.22
2023-03-17T02:27:31.576Z,99190.16
2023-03-17T02:29:59.787Z,99196.31
2023-03-17T02:32:26.942Z,99185.78
2023-03-17T02:34:55.281Z,99185.22
2023-03-17T02:37:21.950Z,99195.50
2023-03-17T02:39:48.551Z,99193.81
2023-03-17T02:42:15.292Z,99189.47
2023-03-17T02:44:42.078Z,99182.50
2023-03-17T02:47:08.761Z,99186.00
2023-03-17T02:49:37.320Z,99185.22
2023-03-17T02:52:05.157Z,99196.66
2023-03-17T02:54:32.106Z,99187.84
2023-03-17T02:56:59.841Z,99184.38
2023-03-17T02:59:27.007Z,99182.69
2023-03-17T03:01:54.649Z,99171.53
2023-03-17T03:04:21.317Z,99173.97
2023-03-17T03:06:48.315Z,99181.91
2023-03-17T03:09:17.679Z,99182.09
2023-03-17T03:11:45.109Z,99182.94
2023-03-17T03:14:11.942Z,99192.66
2023-03-17T03:16:39.801Z,99196.25
2023-03-17T03:19:07.826Z,99186.81
2023-03-17T03:21:35.112Z,99185.78
2023-03-17T03:24:01.667Z,99188.41
2023-03-17T03:26:28.421Z,99173.09
2023-03-17T03:28:57.278Z,99162.91
2023-03-17T03:31:24.697Z,99175.59
2023-03-17T03:33:51.965Z,99160.16
2023-03-17T03:36:18.898Z,99171.91
2023-03-17T03:38:45.678Z,99166.72
2023-03-17T03:41:13.063Z,99146.31
2023-03-17T03:43:39.831Z,99167.72
2023-03-17T03:46:06.908Z,99175.66
2023-03-17T03:48:33.592Z,99178.38
2023-03-17T03:51:02.149Z,99179.78
2023-03-17T03:53:29.279Z,99188.94
2023-03-17T03:55:56.474Z,99182.81
2023-03-17T03:58:23.319Z,99167.63
2023-03-17T04:00:50.064Z,99179.41
2023-03-17T04:03:17.025Z,99168.19
2023-03-17T04:05:43.726Z,99161.56
2023-03-17T04:08:11.287Z,99179.41
2023-03-17T04:10:38.035Z,99174.34
2023-03-17T04:13:04.960Z,99175.28
2023-03-17T04:15:31.845Z,99169.13
2023-03-17T04:17:58.355Z,99163.00
2023-03-17T04:20:24.968Z,99162.13
2023-03-17T04:22:51.813Z,99175.44
2023-03-17T04:25:18.608Z,99180.81
2023-03-17T04:27:45.199Z,99182.59
2023-03-17T04:30:13.901Z,99189.66
2023-03-17T04:32:41.586Z,99187.94
2023-03-17T04:35:12.160Z,99177.94
2023-03-17T04:37:38.996Z,99189.34
2023-03-17T04:40:12.148Z,99187.28
2023-03-17T04:42:39.190Z,99194.25
2023-03-17T04:45:06.881Z,99189.84
2023-03-17T04:47:34.009Z,99170.28
2023-03-17T04:50:01.400Z,99178.53
2023-03-17T04:52:28.422Z,99171.63
2023-03-17T04:54:55.037Z,99176.81
2023-03-17T04:57:22.306Z,99131.69
2023-03-17T04:59:48.859Z,99167.13
2023-03-17T05:02:15.490Z,99160.16
2023-03-17T05:04:42.794Z,99163.72
2023-03-17T05:07:09.430Z,99142.97
2023-03-17T05:09:36.055Z,99162.00
2023-03-17T05:12:02.753Z,99148.59
2023-03-17T05:14:29.520Z,99163.66
2023-03-17T05:16:56.230Z,99183.38
2023-03-17T05:19:22.994Z,99193.78
2023-03-17T05:21:49.624Z,99173.28
2023-03-17T05:24:16.154Z,99194.59
2023-03-17T05:26:42.823Z,99199.06
2023-03-17T05:29:10.039Z,99165.72
2023-03-17T05:31:37.402Z,99192.91
2023-03-17T05:34:04.242Z,99197.59
2023-03-17T05:36:32.024Z,99177.78
2023-03-17T05:38:58.568Z,99187.25
2023-03-17T05:41:25.679Z,99200.81
2023-03-17T05:43:52.441Z,99198.28
2023-03-17T05:46:20.418Z,99194.81
2023-03-17T05:48:47.514Z,99193.09
2023-03-17T05:51:14.415Z,99170.31
2023-03-17T05:53:41.684Z,99203.56
2023-03-17T05:56:09.264Z,99174.75
2023-03-17T05:58:36.567Z,99193.00
2023-03-17T06:01:03.181Z,99189.00
2023-03-17T06:03:29.852Z,99198.19
2023-03-17T06:05:58.926Z,99199.97
2023-03-17T06:08:25.738Z,99208.72
2023-03-17T06:10:52.606Z,99218.34
2023-03-17T06:13:19.138Z,99212.25
2023-03-17T06:15:49.505Z,99201.16
2023-03-17T06:18:16.140Z,99214.00
2023-03-17T06:20:42.872Z,99219.38
2023-03-17T06:23:09.520Z,99222.03
2023-03-17T06:25:37.028Z,99214.66
2023-03-17T06:28:05.440Z,99217.00
2023-03-17T06:30:33.753Z,99219.38
2023-03-17T06:33:01.690Z,99210.78
2023-03-17T06:35:29.441Z,99221.09
2023-03-17T06:37:56.320Z,99194.63
2023-03-17T06:40:22.936Z,99223.72
2023-03-17T06:42:49.605Z,99149.72
2023-03-17T06:45:16.323Z,99192.25
2023-03-17T06:47:43.528Z,99223.72
2023-03-17T06:50:13.457Z,99228.13
2023-03-17T06:52:40.840Z,99233.41
2023-03-17T06:55:08.546Z,99230.78
2023-03-17T06:57:35.750Z,99208.41
2023-03-17T07:00:03.428Z,99223.81
2023-03-17T07:02:30.081Z,99222.22
2023-03-17T07:04:58.168Z,99222.47
2023-03-17T07:07:25.126Z,99218.81
2023-03-17T07:09:52.768Z,99227.38
2023-03-17T07:12:20.103Z,99226.63
2023-03-17T07:14:46.742Z,99227.50
2023-03-17T07:17:14.911Z,99210.38
2023-03-17T07:19:41.696Z,99224.06
2023-03-17T07:22:11.844Z,99219.63
2023-03-17T07:24:39.607Z,99226.53
2023-03-17T07:27:06.300Z,99223.06
2023-03-17T07:29:33.947Z,99226.53
2023-03-17T07:32:01.415Z,99223.06
2023-03-17T07:34:28.431Z,99189.63
2023-03-17T07:36:55.540Z,99209.28
2023-03-17T07:39:22.435Z,99206.53
2023-03-17T07:41:57.797Z,99222.22
2023-03-17T07:44:25.937Z,99194.63
2023-03-17T07:46:52.572Z,99214.28
2023-03-17T07:49:30.755Z,99191.50
2023-03-17T07:52:08.974Z,99213.44
2023-03-17T07:54:37.005Z,99175.25
2023-03-17T07:57:05.151Z,99213.69
2023-03-17T07:59:32.355Z,99216.94
2023-03-17T08:02:01.186Z,99213.34
2023-03-17T08:04:28.332Z,99215.97
2023-03-17T08:06:55.005Z,99216.84
2023-03-17T08:09:24.891Z,99209.03
2023-03-17T08:11:51.606Z,99211.56
2023-03-17T08:14:18.644Z,99206.38
2023-03-17T08:19:10.764Z,99186.47
2023-03-17T08:21:39.064Z,99198.38
2023-03-17T08:24:06.074Z,99197.50
2023-03-17T08:26:32.724Z,99195.72
2023-03-17T08:28:59.906Z,99190.13
2023-03-17T08:31:26.600Z,99200.13
2023-03-17T08:33:54.442Z,99188.91
2023-03-17T08:36:21.842Z,99194.47
2023-03-17T08:38:48.768Z,99203.66
2023-03-17T08:41:18.962Z,99197.59
2023-03-17T08:43:45.979Z,99213.34
2023-03-17T08:46:24.974Z,99210.69
2023-03-17T08:48:54.058Z,99200.59
2023-03-17T08:51:24.223Z,99212.41
2023-03-17T08:53:52.043Z,99212.41
2023-03-17T08:56:19.193Z,99200.91
2023-03-17T08:58:47.056Z,99196.75
2023-03-17T09:01:17.661Z,99188.16
2023-03-17T09:03:45.126Z,99199.97
2023-03-17T09:06:12.284Z,99196.47
2023-03-17T09:08:44.729Z,99194.81
2023-03-17T09:11:14.741Z,99199.88
2023-03-17T09:13:41.544Z,99190.25
2023-03-17T09:16:09.020Z,99194.50
2023-03-17T09:18:36.413Z,99185.66
2023-03-17T09:21:03.518Z,99192.75
2023-03-17T09:23:30.883Z,99183.81
2023-03-17T09:25:57.657Z,99169.84
2023-03-17T09:28:24.691Z,99180.13
2023-03-17T09:30:51.535Z,99175.69
2023-03-17T09:33:18.954Z,99153.34
2023-03-17T09:35:45.580Z,99177.22
2023-03-17T09:38:12.911Z,99135.91
2023-03-17T09:40:51.554Z,99141.50
2023-03-17T09:43:39.445Z,99157.63
2023-03-17T09:46:30.622Z,99147.94
2023-03-17T09:49:09.309Z,99150.50
2023-03-17T09:51:36.627Z,99144.34
2023-03-17T09:54:31.422Z,99142.38
2023-03-17T09:57:06.523Z,99145.09
2023-03-17T09:59:42.247Z,99142.22
2023-03-17T10:02:28.396Z,99143.91
2023-03-17T10:04:56.102Z,99141.28
2023-03-17T10:07:33.993Z,99133.25
2023-03-17T10:10:03.459Z,99126.16
2023-03-17T10:12:36.102Z,99120.06
2023-03-17T10:15:18.481Z,99121.50
2023-03-17T10:17:46.137Z,99110.94
2023-03-17T10:20:27.186Z,99116.84
2023-03-17T10:22:59.274Z,99108.88
2023-03-17T10:25:29.768Z,99116.56
2023-03-17T10:27:59.986Z,99126.19
2023-03-17T10:30:27.376Z,99102.66
2023-03-17T10:32:58.776Z,99107.56
2023-03-17T10:37:47.698Z,99093.47
2023-03-17T10:40:25.924Z,99030.00
2023-03-17T10:43:07.851Z,99098.75
2023-03-17T10:45:40.895Z,99089.16
2023-03-17T10:48:09.743Z,99097.84
2023-03-17T10:50:38.097Z,99092.56
2023-03-17T10:53:08.359Z,99086.25
2023-03-17T10:55:37.632Z,99080.97
2023-03-17T10:58:14.266Z,99073.81
2023-03-17T11:01:00.251Z,99080.72
2023-03-17T11:03:35.847Z,99079.78
2023-03-17T11:06:05.606Z,99083.16
2023-03-17T11:08:35.554Z,99070.03
2023-03-17T11:11:10.357Z,99066.38
2023-03-17T11:13:37.339Z,99059.75
2023-03-17T11:16:15.660Z,99068.84
2023-03-17T11:18:42.888Z,99074.84
2023-03-17T11:21:14.292Z,99076.56
2023-03-17T11:23:55.012Z,99074.78
2023-03-17T11:26:32.059Z,99072.03
2023-03-17T11:29:27.774Z,99060.53
2023-03-17T11:31:57.481Z,99061.38
2023-03-17T11:34:52.543Z,99055.03
2023-03-17T11:37:50.238Z,99052.31
2023-03-17T11:40:46.112Z,99040.78
2023-03-17T11:43:21.950Z,99028.44
2023-03-17T11:45:54.835Z,99024.00
2023-03-17T11:48:47.066Z,99017.78
2023-03-17T11:51:27.502Z,99017.59
2023-03-17T11:54:07.971Z,99023.72
2023-03-17T11:56:46.237Z,99013.06
2023-03-17T11:59:38.387Z,99005.06
2023-03-17T12:02:07.853Z,98992.56
2023-03-17T12:04:51.257Z,98986.25
2023-03-17T12:07:17.956Z,98985.31
2023-03-17T12:09:50.781Z,98976.94
2023-03-17T12:12:28.289Z,98986.78
2023-03-17T12:14:57.855Z,98981.06
2023-03-17T12:17:34.537Z,98986.72
2023-03-17T12:20:19.966Z,98980.28
2023-03-17T12:23:11.046Z,98985.38
2023-03-17T12:25:45.302Z,98984.50
2023-03-17T12:28:23.150Z,98978.41
2023-03-17T12:30:55.355Z,98979.78
2023-03-17T12:33:29.641Z,98977.06
2023-03-17T12:35:58.861Z,98973.44
2023-03-17T12:38:38.225Z,98968.06
2023-03-17T12:41:31.480Z,98971.44
2023-03-17T12:44:07.905Z,98968.81
2023-03-17T12:46:52.204Z,98971.25
2023-03-17T12:49:52.706Z,98955.28
2023-03-17T12:52:48.001Z,98948.31
2023-03-17T12:55:17.610Z,98954.16
2023-03-17T12:57:46.873Z,98930.69
2023-03-17T13:00:29.556Z,98935.44
2023-03-17T13:03:23.421Z,98934.50
2023-03-17T13:05:55.107Z,98930.91
2023-03-17T13:08:28.207Z,98932.63
2023-03-17T13:11:14.648Z,98921.94
2023-03-17T13:13:44.507Z,98919.22
2023-03-17T13:16:39.315Z,98923.56
2023-03-17T13:19:20.084Z,98919.97
2023-03-17T13:22:03.619Z,98916.38
2023-03-17T13:24:46.880Z,98917.22
2023-03-17T13:27:34.879Z,98916.25
2023-03-17T13:30:37.624Z,98925.03
2023-03-17T13:33:10.722Z,98920.59
2023-03-17T13:36:04.081Z,98925.91
2023-03-17T13:39:04.884Z,98926.72
2023-03-17T13:41:52.009Z,98921.44
2023-03-17T13:44:25.519Z,98909.06
2023-03-17T13:46:53.065Z,98909.06
2023-03-17T13:49:19.593Z,98904.63
2023-03-17T13:52:01.675Z,98901.88
2023-03-17T13:54:28.664Z,98902.81
2023-03-17T13:57:00.068Z,98883.91
2023-03-17T13:59:55.609Z,98888.66
2023-03-17T14:02:25.297Z,98873.75
2023-03-17T14:04:55.803Z,98876.31
2023-03-17T14:07:27.118Z,98871.84
2023-03-17T14:10:00.020Z,98872.59
2023-03-17T14:13:02.576Z,98867.22
2023-03-17T14:15:29.637Z,98867.09
2023-03-17T14:18:08.776Z,98862.66
2023-03-17T14:20:36.437Z,98853.75
2023-03-17T14:23:04.476Z,98841.06
2023-03-17T14:25:35.471Z,98851.97
2023-03-17T14:28:09.341Z,98853.44
2023-03-17T14:30:39.568Z,98866.69
2023-03-17T14:33:13.186Z,98862.13
2023-03-17T14:35:43.615Z,98855.91
2023-03-17T14:38:26.836Z,98854.97
2023-03-17T14:41:15.453Z,98858.31
2023-03-17T14:43:44.240Z,98848.69
2023-03-17T14:46:18.554Z,98859.06
2023-03-17T14:48:48.891Z,98850.19
2023-03-17T14:51:25.166Z,98839.81
2023-03-17T14:53:54.501Z,98854.41
2023-03-17T14:56:24.124Z,98827.88
2023-03-17T14:58:52.382Z,98836.53
2023-03-17T15:01:36.463Z,98836.53
2023-03-17T15:04:24.866Z,98829.56
2023-03-17T15:06:54.609Z,98829.31
2023-03-17T15:09:34.296Z,98821.31
2023-03-17T15:12:24.626Z,98823.94
2023-03-17T15:14:54.464Z,98814.19
2023-03-17T15:17:26.349Z,98811.56
2023-03-17T15:19:58.188Z,98804.38
2023-03-17T15:22:44.718Z,98814.94
2023-03-17T15:25:17.693Z,98810.50
2023-03-17T15:27:45.549Z,98807.84
2023-03-17T15:30:16.527Z,98802.56
2023-03-17T15:32:45.261Z,98804.25
2023-03-17T15:35:13.984Z,98804.13
2023-03-17T15:37:41.578Z,98787.88
2023-03-17T15:40:10.705Z,98805.09
2023-03-17T15:42:39.764Z,98805.84
2023-03-17T15:45:07.815Z,98786.28
2023-03-17T15:47:39.171Z,98801.41
2023-03-17T15:50:16.711Z,98800.44
2023-03-17T15:52:44.656Z,98801.28
2023-03-17T15:55:22.879Z,98803.06
2023-03-17T15:57:55.067Z,98797.78
2023-03-17T16:00:24.182Z,98782.25
2023-03-17T16:02:56.217Z,98787.31
2023-03-17T16:05:29.403Z,98785.53
2023-03-17T16:07:58.661Z,98793.47
2023-03-17T16:10:32.239Z,98776.00
2023-03-17T16:12:59.426Z,98785.75
2023-03-17T16:15:29.334Z,98780.34
2023-03-17T16:17:59.242Z,98783.84
2023-03-17T16:20:31.365Z,98766.72
2023-03-17T16:23:04.694Z,98782.25
2023-03-17T16:25:32.466Z,98783.22
2023-03-17T16:28:01.660Z,98786.69
2023-03-17T16:30:31.491Z,98794.75
2023-03-17T16:33:02.269Z,98794.75
2023-03-17T16:35:29.359Z,98789.56
2023-03-17T16:37:56.253Z,98766.00
2023-03-17T16:40:29.092Z,98788.69
2023-03-17T16:42:55.835Z,98771.69
2023-03-17T16:45:34.067Z,98784.47
2023-03-17T16:48:04.024Z,98798.66
2023-03-17T16:50:33.608Z,98795.16
2023-03-17T16:53:00.474Z,98798.75
2023-03-17T16:55:30.477Z,98791.78
2023-03-17T16:58:00.932Z,98779.84
2023-03-17T17:00:29.934Z,98783.13
2023-03-17T17:02:58.165Z,98781.44
2023-03-17T17:05:28.199Z,98785.84
2023-03-17T17:07:56.996Z,98799.06
2023-03-17T17:10:25.904Z,98787.97
2023-03-17T17:12:53.004Z,98795.72
2023-03-17T17:15:21.708Z,98800.13
2023-03-17T17:18:01.328Z,98802.78
2023-03-17T17:20:31.816Z,98805.53
2023-03-17T17:23:00.558Z,98801.19
2023-03-17T17:25:28.108Z,98809.25
2023-03-17T17:27:56.353Z,98804.78
2023-03-17T17:30:28.038Z,98806.72
2023-03-17T17:32:59.999Z,98806.72
2023-03-17T17:35:32.787Z,98790.00
2023-03-17T17:38:01.477Z,98790.84
2023-03-17T17:40:32.224Z,98808.09
2023-03-17T17:42:59.558Z,98814.22
2023-03-17T17:45:26.491Z,98818.66
2023-03-17T17:47:53.123Z,98795.06
2023-03-17T17:50:26.041Z,98815.59
2023-03-17T17:52:52.874Z,98801.72
2023-03-17T17:55:22.073Z,98791.03
2023-03-17T17:57:52.299Z,98798.84
2023-03-17T18:00:19.732Z,98811.34
2023-03-17T18:02:46.344Z,98810.28
2023-03-17T18:05:13.433Z,98820.03
2023-03-17T18:07:40.596Z,98815.69
2023-03-17T18:10:07.980Z,98802.34
2023-03-17T18:12:37.974Z,98815.69
2023-03-17T18:15:05.490Z,98803.19
2023-03-17T18:17:32.624Z,98785.31
2023-03-17T18:20:00.273Z,98815.69
2023-03-17T18:22:27.864Z,98791.25
2023-03-17T18:24:56.474Z,98815.06
2023-03-17T18:27:23.722Z,98815.06
2023-03-17T18:29:51.135Z,98819.28
2023-03-17T18:32:17.833Z,98816.66
2023-03-17T18:34:47.968Z,98809.03
2023-03-17T18:37:17.635Z,98816.66
2023-03-17T18:39:48.824Z,98814.00
2023-03-17T18:42:19.791Z,98814.00
2023-03-17T18:44:46.476Z,98820.16
2023-03-17T18:47:15.846Z,98802.03
2023-03-17T18:49:44.109Z,98812.22
2023-03-17T18:52:13.317Z,98778.22
2023-03-17T18:54:40.419Z,98767.25
2023-03-17T18:57:08.436Z,98796.19
2023-03-17T18:59:34.979Z,98800.34
2023-03-17T19:02:02.553Z,98803.44
2023-03-17T19:04:30.300Z,98807.78
2023-03-17T19:06:57.981Z,98803.31
2023-03-17T19:09:24.568Z,98791.28
2023-03-17T19:11:51.319Z,98801.66
2023-03-17T19:14:17.975Z,98796.56
2023-03-17T19:16:45.021Z,98783.84
2023-03-17T19:19:11.756Z,98796.25
2023-03-17T19:21:38.477Z,98783.84
2023-03-17T19:24:05.537Z,98780.38
2023-03-17T19:26:34.094Z,98786.50
2023-03-17T19:29:03.620Z,98788.31
2023-03-17T19:31:30.298Z,98783.84
2023-03-17T19:34:01.921Z,98783.84
2023-03-17T19:36:36.085Z,98786.50
2023-03-17T19:39:07.206Z,98784.81
2023-03-17T19:41:37.870Z,98775.28
2023-03-17T19:44:10.597Z,98756.78
2023-03-17T19:46:38.044Z,98787.44
2023-03-17T19:49:04.931Z,98782.16
2023-03-17T19:51:33.174Z,98769.94
2023-03-17T19:54:00.566Z,98777.00
2023-03-17T19:56:27.938Z,98754.66
2023-03-17T19:58:55.766Z,98786.63
2023-03-17T20:01:23.108Z,98777.22
2023-03-17T20:03:52.451Z,98762.19
2023-03-17T20:06:19.259Z,98785.78
2023-03-17T20:08:46.080Z,98779.53
2023-03-17T20:11:13.454Z,98751.69
2023-03-17T20:13:42.058Z,98784.81
2023-03-17T20:16:09.253Z,98762.38
2023-03-17T20:18:39.364Z,98774.97
2023-03-17T20:21:15.844Z,98766.41
2023-03-17T20:23:45.377Z,98768.44
2023-03-17T20:26:20.118Z,98775.09
2023-03-17T20:28:52.621Z,98779.31
2023-03-17T20:31:19.522Z,98769.06
2023-03-17T20:33:46.305Z,98769.50
2023-03-17T20:36:18.831Z,98776.56
2023-03-17T20:38:45.685Z,98772.97
2023-03-17T20:41:15.327Z,98761.34
2023-03-17T20:43:45.190Z,98775.50
2023-03-17T20:46:23.054Z,98770.22
2023-03-17T20:49:01.291Z,98746.53
2023-03-17T20:51:30.990Z,98758.19
2023-03-17T20:53:58.336Z,98778.91
2023-03-17T20:56:26.563Z,98773.59
2023-03-17T20:58:53.550Z,98766.50
2023-03-17T21:01:21.764Z,98766.50
2023-03-17T21:03:49.653Z,98759.44
2023-03-17T21:06:23.078Z,98746.97
2023-03-17T21:08:55.534Z,98764.63
2023-03-17T21:11:26.939Z,98756.69
2023-03-17T21:13:56.152Z,98759.31
2023-03-17T21:16:25.603Z,98763.78
2023-03-17T21:18:52.652Z,98766.44
2023-03-17T21:21:23.066Z,98760.28
2023-03-17T21:23:56.228Z,98762.09
2023-03-17T21:26:26.086Z,98768.19
2023-03-17T21:28:52.691Z,98742.63
2023-03-17T21:31:21.685Z,98762.09
2023-03-17T21:33:50.503Z,98764.84
2023-03-17T21:36:18.095Z,98763.03
2023-03-17T21:38:46.048Z,98775.41
2023-03-17T21:41:29.318Z,98773.59
2023-03-17T21:43:56.388Z,98764.28
2023-03-17T21:46:23.346Z,98760.81
2023-03-17T21:48:50.143Z,98765.69
2023-03-17T21:51:16.804Z,98766.50
2023-03-17T21:53:43.616Z,98759.56
2023-03-17T21:56:12.430Z,98760.38
2023-03-17T21:58:40.141Z,98753.84
2023-03-17T22:01:07.553Z,98756.38
2023-03-17T22:03:36.587Z,98753.44
2023-03-17T22:06:05.381Z,98774.56
2023-03-17T22:08:33.257Z,98772.78
2023-03-17T22:11:01.217Z,98770.13
2023-03-17T22:13:30.169Z,98769.28
2023-03-17T22:15:59.353Z,98777.19
2023-03-17T22:18:25.953Z,98767.50
2023-03-17T22:20:56.537Z,98760.63
2023-03-17T22:23:25.563Z,98768.44
2023-03-17T22:25:52.650Z,98771.91
2023-03-17T22:28:19.551Z,98775.41
2023-03-17T22:30:46.252Z,98769.16
2023-03-17T22:33:14.473Z,98758.56
2023-03-17T22:35:41.355Z,98757.22
2023-03-17T22:38:13.077Z,98765.69
2023-03-17T22:40:39.966Z,98750.44
2023-03-17T22:43:07.236Z,98754.28
2023-03-17T22:45:37.057Z,98755.22
2023-03-17T22:48:04.176Z,98737.47
2023-03-17T22:50:31.111Z,98760.28
2023-03-17T22:52:57.895Z,98743.25
2023-03-17T22:55:24.638Z,98759.44
2023-03-17T22:57:51.551Z,98756.91
2023-03-17T23:00:18.711Z,98754.03
2023-03-17T23:02:46.399Z,98706.75
2023-03-17T23:05:13.613Z,98752.34
2023-03-17T23:07:50.418Z,98755.09
2023-03-17T23:10:22.915Z,98761.13
2023-03-17T23:12:50.775Z,98754.97
2023-03-17T23:15:18.869Z,98744.13
2023-03-17T23:17:46.226Z,98724.53
2023-03-17T23:20:13.632Z,98749.69
2023-03-17T23:22:41.297Z,98753.28
2023-03-17T23:25:08.574Z,98743.56
2023-03-17T23:27:35.282Z,98742.72
2023-03-17T23:30:01.967Z,98734.38
2023-03-17T23:32:28.976Z,98739.25
2023-03-17T23:34:55.758Z,98738.28
2023-03-17T23:37:22.441Z,98685.00
2023-03-17T23:39:49.358Z,98733.94
2023-03-17T23:42:17.341Z,98727.81
2023-03-17T23:44:45.180Z,98735.66
2023-03-17T23:47:12.141Z,98733.94
2023-03-17T23:49:39.083Z,98735.75
2023-03-17T23:52:05.958Z,98710.91
2023-03-17T23:54:34.024Z,98718.53
2023-03-17T23:57:01.074Z,98724.44
2023-03-17T23:59:29.186Z,98723.59
